North English, Iowa
Current Conditions -  °F | °C
As of 12:35 PM on Sunday 21 Dec 2014 (Local Time) from KAWG Reporting Station
Overcast Overcast  
Wind Chill: 31°   Ceiling: 2300
Heat Index: 39°   Visibility: 10mi
Dew Point: 39°   Wind: 15mph
Humidity: 100%   Direction: 170°S
Pressure: 29.97"   Gusts: NA
Location:  41.51°N, 92.08°W
Report Text: KAWG 211835Z AUTO 17013KT 10SM OVC023 04/04 A2997 RMK AO2
Loading
Personal Weather Stations






























Interactive Weather Map New forecast layout! Learn more

10-Day Weather Forecast

Advertisements
Track Severe Weather on mobile